createdAt,value
2019-03-10T00:02:18.048Z,7.75
2019-03-10T00:07:22.665Z,6.53
2019-03-10T00:12:27.122Z,3.20
2019-03-10T00:17:31.789Z,3.50
2019-03-10T00:22:36.221Z,2.83
2019-03-10T00:27:40.655Z,3.87
2019-03-10T00:32:45.089Z,3.85
2019-03-10T00:37:49.887Z,3.70
2019-03-10T00:43:19.149Z,4.08
2019-03-10T00:48:49.695Z,4.17
2019-03-10T00:53:54.437Z,5.05
2019-03-10T00:58:58.872Z,2.80
2019-03-10T01:04:03.318Z,0.90
2019-03-10T01:09:07.923Z,0.90
2019-03-10T01:14:14.536Z,1.02
2019-03-10T01:19:19.482Z,1.35
2019-03-10T01:24:24.117Z,2.45
2019-03-10T01:29:28.527Z,5.77
2019-03-10T01:34:41.895Z,6.50
2019-03-10T01:39:46.329Z,1.90
2019-03-10T01:44:51.046Z,2.07
2019-03-10T01:49:55.542Z,1.80
2019-03-10T01:55:00.018Z,1.60
2019-03-10T02:00:06.528Z,1.50
2019-03-10T02:05:12.805Z,1.60
2019-03-10T02:10:17.549Z,1.77
2019-03-10T02:15:22.288Z,1.80
2019-03-10T02:20:27.029Z,2.10
2019-03-10T02:25:31.771Z,2.42
2019-03-10T02:30:36.517Z,2.08
2019-03-10T02:35:40.947Z,2.43
2019-03-10T02:40:45.691Z,2.47
2019-03-10T02:45:50.431Z,2.27
2019-03-10T02:50:56.094Z,2.53
2019-03-10T02:56:00.838Z,1.80
2019-03-10T03:01:05.451Z,2.20
2019-03-10T03:06:10.946Z,2.13
2019-03-10T03:11:15.677Z,2.47
2019-03-10T03:16:20.122Z,2.70
2019-03-10T03:21:24.860Z,2.77
2019-03-10T03:26:29.300Z,2.35
2019-03-10T03:31:34.031Z,3.27
2019-03-10T03:36:38.562Z,3.67
2019-03-10T03:41:43.208Z,3.52
2019-03-10T03:46:47.948Z,5.60
2019-03-10T03:51:52.384Z,5.95
2019-03-10T03:56:56.818Z,5.72
2019-03-10T04:02:03.095Z,6.20
2019-03-10T04:07:07.608Z,5.87
2019-03-10T04:12:12.274Z,5.08
2019-03-10T04:17:17.014Z,4.97
2019-03-10T04:22:21.447Z,4.87
2019-03-10T04:27:26.191Z,3.92
2019-03-10T04:32:30.753Z,2.60
2019-03-10T04:37:35.674Z,3.15
2019-03-10T04:42:40.414Z,2.50
2019-03-10T04:47:45.156Z,3.33
2019-03-10T04:52:49.598Z,3.40
2019-03-10T04:57:58.636Z,2.13
2019-03-10T05:03:03.152Z,2.13
2019-03-10T05:08:07.811Z,2.05
2019-03-10T05:13:12.552Z,2.52
2019-03-10T05:18:17.063Z,1.92
2019-03-10T05:23:30.026Z,2.35
2019-03-10T05:28:40.069Z,2.87
2019-03-10T05:33:44.734Z,2.20
2019-03-10T05:38:49.165Z,2.10
2019-03-10T05:43:53.602Z,2.52
2019-03-10T05:48:58.121Z,2.02
2019-03-10T05:54:02.775Z,2.65
2019-03-10T05:59:07.288Z,2.15
2019-03-10T06:04:11.986Z,2.30
2019-03-10T06:09:16.411Z,2.30
2019-03-10T06:14:20.910Z,2.47
2019-03-10T06:19:25.565Z,2.33
2019-03-10T06:24:31.228Z,2.92
2019-03-10T06:29:35.660Z,2.50
2019-03-10T06:34:40.403Z,2.58
2019-03-10T06:39:44.838Z,2.33
2019-03-10T06:44:49.886Z,2.58
2019-03-10T06:49:54.628Z,2.75
2019-03-10T06:54:59.062Z,2.22
2019-03-10T07:00:04.261Z,2.20
2019-03-10T07:05:11.803Z,2.62
2019-03-10T07:10:17.259Z,2.45
2019-03-10T07:15:21.715Z,2.85
2019-03-10T07:20:26.151Z,2.65
2019-03-10T07:25:30.903Z,2.72
2019-03-10T07:30:49.235Z,3.60
2019-03-10T07:36:11.408Z,3.00
2019-03-10T07:41:23.517Z,3.40
2019-03-10T07:46:33.488Z,3.22
2019-03-10T07:51:52.976Z,2.83
2019-03-10T07:57:08.006Z,3.35
2019-03-10T08:02:30.715Z,2.75
2019-03-10T08:07:36.815Z,2.90
2019-03-10T08:12:42.938Z,3.47
2019-03-10T08:18:06.445Z,2.10
2019-03-10T08:23:15.804Z,4.00
2019-03-10T08:28:22.086Z,3.75
2019-03-10T08:33:28.236Z,3.20
2019-03-10T08:38:50.271Z,3.15
2019-03-10T08:44:09.782Z,3.20
2019-03-10T08:49:15.833Z,3.08
2019-03-10T08:54:37.391Z,2.83
2019-03-10T08:59:49.505Z,2.95
2019-03-10T09:04:55.555Z,3.00
2019-03-10T09:10:10.980Z,3.10
2019-03-10T09:15:20.014Z,4.08
2019-03-10T09:20:26.290Z,2.45
2019-03-10T09:25:38.404Z,3.00
2019-03-10T09:30:47.527Z,3.20
2019-03-10T09:35:53.725Z,2.92
2019-03-10T09:41:15.978Z,3.35
2019-03-10T09:46:25.634Z,3.98
2019-03-10T09:51:31.919Z,3.37
2019-03-10T09:56:38.255Z,3.25
2019-03-10T10:02:00.753Z,3.72
2019-03-10T10:07:09.807Z,3.17
2019-03-10T10:12:21.593Z,3.00
2019-03-10T10:17:30.642Z,2.87
2019-03-10T10:22:42.760Z,3.58
2019-03-10T10:27:54.880Z,2.98
2019-03-10T10:33:13.145Z,2.85
2019-03-10T10:38:22.173Z,3.37
2019-03-10T10:43:44.732Z,2.55
2019-03-10T10:48:53.547Z,2.98
2019-03-10T10:54:17.645Z,2.20
2019-03-10T10:59:39.386Z,2.52
2019-03-10T11:04:54.391Z,2.80
2019-03-10T11:10:00.669Z,3.02
2019-03-10T11:15:18.542Z,2.25
2019-03-10T11:20:24.752Z,2.83
2019-03-10T11:25:30.867Z,3.83
2019-03-10T11:30:37.151Z,3.77
2019-03-10T11:35:48.927Z,2.10
2019-03-10T11:40:57.993Z,3.15
2019-03-10T11:46:20.556Z,2.10
2019-03-10T11:51:26.829Z,3.17
2019-03-10T11:56:45.103Z,2.10
2019-03-10T12:02:15.530Z,2.42
2019-03-10T12:07:19.411Z,2.85
2019-03-10T12:12:24.199Z,2.95
2019-03-10T12:17:28.942Z,3.12
2019-03-10T12:22:34.447Z,3.17
2019-03-10T12:27:39.036Z,2.72
2019-03-10T12:32:43.785Z,2.52
2019-03-10T12:37:48.213Z,2.90
2019-03-10T12:42:52.954Z,2.72
2019-03-10T12:47:57.978Z,3.60
2019-03-10T12:53:04.059Z,3.02
2019-03-10T12:58:08.717Z,2.65
2019-03-10T13:03:13.150Z,3.25
2019-03-10T13:08:17.897Z,2.67
2019-03-10T13:13:22.614Z,2.85
2019-03-10T13:18:28.297Z,2.80
2019-03-10T13:23:33.040Z,2.20
2019-03-10T13:28:37.780Z,2.47
2019-03-10T13:33:42.215Z,2.85
2019-03-10T13:38:46.650Z,4.00
2019-03-10T13:43:51.092Z,2.83
2019-03-10T13:48:55.522Z,2.80
2019-03-10T13:54:00.266Z,3.55
2019-03-10T13:59:04.797Z,3.50
2019-03-10T14:04:09.437Z,3.25
2019-03-10T14:09:14.273Z,3.17
2019-03-10T14:14:20.461Z,3.45
2019-03-10T14:19:25.224Z,3.90
2019-03-10T14:24:29.940Z,2.90
2019-03-10T14:29:36.219Z,2.83
2019-03-10T14:34:40.960Z,2.87
2019-03-10T14:39:45.705Z,3.15
2019-03-10T14:44:50.443Z,3.17
2019-03-10T14:49:54.956Z,2.77
2019-03-10T14:54:59.628Z,2.67
2019-03-10T15:00:12.945Z,3.00
2019-03-10T15:05:17.705Z,3.15
2019-03-10T15:10:22.446Z,2.62
2019-03-10T15:15:27.187Z,2.65
2019-03-10T15:20:31.929Z,2.62
2019-03-10T15:25:36.672Z,4.00
2019-03-10T15:30:41.415Z,4.15
2019-03-10T15:35:46.154Z,4.37
2019-03-10T15:40:50.898Z,4.58
2019-03-10T15:45:55.331Z,6.20
2019-03-10T15:51:00.671Z,5.05
2019-03-10T15:56:05.111Z,4.42
2019-03-10T16:01:09.865Z,5.40
2019-03-10T16:06:14.606Z,9.43
2019-03-10T16:11:19.061Z,4.95
2019-03-10T16:16:25.302Z,6.22
2019-03-10T16:21:30.674Z,44.27
2019-03-10T16:26:35.125Z,56.50
2019-03-10T16:31:39.548Z,23.90
2019-03-10T16:36:44.290Z,24.98
2019-03-10T16:41:49.031Z,37.75
2019-03-10T16:46:53.461Z,77.10
2019-03-10T16:51:58.205Z,30.72
2019-03-10T16:57:02.945Z,32.23
2019-03-10T17:02:07.686Z,46.25
2019-03-10T17:07:12.121Z,27.00
2019-03-10T17:12:16.556Z,29.23
2019-03-10T17:17:21.307Z,53.28
2019-03-10T17:22:25.810Z,93.12
2019-03-10T17:27:30.484Z,75.57
2019-03-10T17:32:37.217Z,61.85
2019-03-10T17:37:40.989Z,55.28
2019-03-10T17:42:47.163Z,39.45
2019-03-10T17:47:52.820Z,28.38
2019-03-10T17:52:57.563Z,20.45
2019-03-10T17:58:01.996Z,15.80
2019-03-10T18:03:07.356Z,19.90
2019-03-10T18:08:12.095Z,41.42
2019-03-10T18:13:16.614Z,60.00
2019-03-10T18:18:21.272Z,39.38
2019-03-10T18:23:26.012Z,20.88
2019-03-10T18:28:31.676Z,15.98
2019-03-10T18:33:36.418Z,88.05
2019-03-10T18:38:40.935Z,87.20
2019-03-10T18:43:45.597Z,41.58
2019-03-10T18:48:50.338Z,24.67
2019-03-10T18:53:56.614Z,23.60
2019-03-10T18:59:01.357Z,19.62
2019-03-10T19:04:06.119Z,15.90
2019-03-10T19:09:10.506Z,16.65
2019-03-10T19:14:15.170Z,13.20
2019-03-10T19:19:19.605Z,12.28
2019-03-10T19:24:24.170Z,22.50
2019-03-10T19:29:28.789Z,40.50
2019-03-10T19:34:33.221Z,69.95
2019-03-10T19:39:41.769Z,163.90
2019-03-10T19:44:46.387Z,23.18
2019-03-10T19:49:50.899Z,37.90
2019-03-10T19:54:55.567Z,11.18
2019-03-10T20:00:00.366Z,18.10
2019-03-10T20:05:08.435Z,40.73
2019-03-10T20:10:15.634Z,12.82
2019-03-10T20:15:24.345Z,11.43
2019-03-10T20:20:34.325Z,15.18
2019-03-10T20:25:39.147Z,27.32
2019-03-10T20:30:43.807Z,13.05
2019-03-10T20:35:48.550Z,16.85
2019-03-10T20:40:53.086Z,11.55
2019-03-10T20:45:57.726Z,11.97
2019-03-10T20:51:05.209Z,17.00
2019-03-10T20:56:09.668Z,11.22
2019-03-10T21:01:14.715Z,10.82
2019-03-10T21:06:19.245Z,11.22
2019-03-10T21:11:23.927Z,11.85
2019-03-10T21:16:28.633Z,12.15
2019-03-10T21:21:33.671Z,10.48
2019-03-10T21:26:38.186Z,15.70
2019-03-10T21:31:42.652Z,10.55
2019-03-10T21:36:47.063Z,9.68
2019-03-10T21:41:51.728Z,8.23
2019-03-10T21:46:56.239Z,8.63
2019-03-10T21:52:00.905Z,8.95
2019-03-10T21:57:05.338Z,8.53
2019-03-10T22:02:09.772Z,11.53
2019-03-10T22:07:14.514Z,19.12
2019-03-10T22:12:19.134Z,8.00
2019-03-10T22:17:23.690Z,7.08
2019-03-10T22:22:28.127Z,7.50
2019-03-10T22:27:32.559Z,8.38
2019-03-10T22:32:38.223Z,6.80
2019-03-10T22:37:42.657Z,7.42
2019-03-10T22:42:47.095Z,7.40
2019-03-10T22:47:51.527Z,7.75
2019-03-10T22:52:56.269Z,7.00
2019-03-10T22:58:00.703Z,7.20
2019-03-10T23:03:05.138Z,9.13
2019-03-10T23:08:09.880Z,8.28
2019-03-10T23:13:14.315Z,6.60
2019-03-10T23:18:18.750Z,7.35
2019-03-10T23:23:24.491Z,6.95
2019-03-10T23:28:29.154Z,6.70
2019-03-10T23:33:33.591Z,7.62
2019-03-10T23:38:38.330Z,8.95
2019-03-10T23:43:42.764Z,11.70
2019-03-10T23:48:47.202Z,12.05
2019-03-10T23:53:51.941Z,12.58
2019-03-10T23:58:56.378Z,11.00
